createdAt,value
2022-08-26T00:01:17.456Z,97676.88
2022-08-26T00:03:54.783Z,97668.59
2022-08-26T00:06:24.917Z,97664.44
2022-08-26T00:08:57.709Z,97667.06
2022-08-26T00:11:28.838Z,97662.16
2022-08-26T00:14:00.701Z,97660.44
2022-08-26T00:16:32.256Z,97659.13
2022-08-26T00:19:02.759Z,97661.56
2022-08-26T00:21:32.805Z,97664.78
2022-08-26T00:24:07.416Z,97665.72
2022-08-26T00:26:37.773Z,97668.53
2022-08-26T00:29:08.005Z,97670.22
2022-08-26T00:31:39.899Z,97665.50
2022-08-26T00:34:11.294Z,97664.91
2022-08-26T00:36:42.624Z,97652.47
2022-08-26T00:39:15.964Z,97658.63
2022-08-26T00:41:46.913Z,97659.97
2022-08-26T00:44:17.132Z,97663.22
2022-08-26T00:46:53.939Z,97662.06
2022-08-26T00:49:34.196Z,97668.09
2022-08-26T00:52:09.685Z,97660.94
2022-08-26T00:54:47.365Z,97664.28
2022-08-26T00:57:21.031Z,97659.75
2022-08-26T00:59:58.298Z,97660.13
2022-08-26T01:02:28.897Z,97660.88
2022-08-26T01:05:04.281Z,97662.22
2022-08-26T01:07:39.244Z,97662.38
2022-08-26T01:10:17.229Z,97661.78
2022-08-26T01:12:52.813Z,97658.97
2022-08-26T01:15:29.176Z,97656.53
2022-08-26T01:18:04.136Z,97664.22
2022-08-26T01:20:43.254Z,97652.56
2022-08-26T01:23:16.425Z,97658.59
2022-08-26T01:25:51.903Z,97661.63
2022-08-26T01:28:26.762Z,97655.56
2022-08-26T01:30:59.785Z,97659.13
2022-08-26T01:33:47.856Z,97652.34
2022-08-26T01:36:20.778Z,97657.03
2022-08-26T01:38:53.608Z,97651.38
2022-08-26T01:41:27.443Z,97649.13
2022-08-26T01:44:00.394Z,97657.41
2022-08-26T01:46:33.545Z,97653.44
2022-08-26T01:49:07.983Z,97655.50
2022-08-26T01:51:39.691Z,97651.72
2022-08-26T01:54:14.268Z,97652.28
2022-08-26T01:56:44.627Z,97658.81
2022-08-26T01:59:18.128Z,97652.63
2022-08-26T02:01:50.342Z,97654.25
2022-08-26T02:04:29.126Z,97649.03
2022-08-26T02:07:00.340Z,97646.75
2022-08-26T02:09:33.464Z,97651.84
2022-08-26T02:12:14.882Z,97652.25
2022-08-26T02:14:52.029Z,97645.25
2022-08-26T02:17:27.689Z,97646.38
2022-08-26T02:19:59.463Z,97657.22
2022-08-26T02:22:29.768Z,97650.72
2022-08-26T02:25:12.007Z,97649.38
2022-08-26T02:27:43.564Z,97652.59
2022-08-26T02:30:18.617Z,97651.09
2022-08-26T02:32:49.779Z,97644.69
2022-08-26T02:35:23.417Z,97649.53
2022-08-26T02:37:56.018Z,97641.44
2022-08-26T02:40:34.978Z,97645.88
2022-08-26T02:43:08.606Z,97642.53
2022-08-26T02:45:40.322Z,97644.03
2022-08-26T02:48:16.894Z,97647.25
2022-08-26T02:50:50.050Z,97651.38
2022-08-26T02:53:25.004Z,97650.06
2022-08-26T02:55:58.524Z,97641.81
2022-08-26T02:58:30.072Z,97646.66
2022-08-26T03:01:00.374Z,97644.94
2022-08-26T03:03:32.076Z,97644.47
2022-08-26T03:06:02.961Z,97638.09
2022-08-26T03:08:33.488Z,97636.97
2022-08-26T03:11:06.127Z,97636.56
2022-08-26T03:13:36.698Z,97636.94
2022-08-26T03:16:08.650Z,97641.38
2022-08-26T03:18:39.922Z,97637.81
2022-08-26T03:21:11.661Z,97638.03
2022-08-26T03:23:43.656Z,97632.94
2022-08-26T03:26:18.862Z,97629.56
2022-08-26T03:29:01.216Z,97625.19
2022-08-26T03:31:33.069Z,97627.25
2022-08-26T03:34:03.649Z,97624.28
2022-08-26T03:36:35.029Z,97618.84
2022-08-26T03:39:05.718Z,97622.97
2022-08-26T03:41:39.956Z,97627.28
2022-08-26T03:44:11.726Z,97630.69
2022-08-26T03:46:42.108Z,97619.75
2022-08-26T03:49:14.421Z,97622.00
2022-08-26T03:51:45.400Z,97624.81
2022-08-26T03:54:15.889Z,97627.09
2022-08-26T03:56:48.689Z,97622.78
2022-08-26T03:59:18.907Z,97626.88
2022-08-26T04:01:49.100Z,97628.56
2022-08-26T04:04:22.570Z,97630.25
2022-08-26T04:06:53.208Z,97627.09
2022-08-26T04:09:24.284Z,97627.84
2022-08-26T04:11:59.642Z,97637.06
2022-08-26T04:14:31.947Z,97635.00
2022-08-26T04:17:04.566Z,97632.75
2022-08-26T04:19:36.594Z,97640.97
2022-08-26T04:22:06.564Z,97637.06
2022-08-26T04:24:39.584Z,97634.59
2022-08-26T04:27:12.581Z,97639.47
2022-08-26T04:29:43.812Z,97635.34
2022-08-26T04:32:14.016Z,97632.13
2022-08-26T04:34:44.976Z,97633.44
2022-08-26T04:37:16.599Z,97628.69
2022-08-26T04:39:47.919Z,97627.41
2022-08-26T04:42:26.258Z,97625.53
2022-08-26T04:44:56.707Z,97630.41
2022-08-26T04:47:31.720Z,97628.94
2022-08-26T04:50:02.521Z,97628.41
2022-08-26T04:52:32.755Z,97625.91
2022-08-26T04:55:02.960Z,97626.69
2022-08-26T04:57:39.005Z,97627.84
2022-08-26T05:00:13.463Z,97631.97
2022-08-26T05:02:43.879Z,97630.31
2022-08-26T05:05:14.229Z,97632.09
2022-08-26T05:07:44.762Z,97631.94
2022-08-26T05:10:14.761Z,97635.19
2022-08-26T05:12:47.654Z,97629.38
2022-08-26T05:15:18.003Z,97636.38
2022-08-26T05:17:50.507Z,97631.91
2022-08-26T05:20:25.622Z,97631.97
2022-08-26T05:22:56.502Z,97630.84
2022-08-26T05:25:27.437Z,97627.34
2022-08-26T05:28:00.287Z,97633.56
2022-08-26T05:30:32.945Z,97636.41
2022-08-26T05:33:05.112Z,97632.31
2022-08-26T05:35:36.294Z,97640.25
2022-08-26T05:38:12.652Z,97631.06
2022-08-26T05:40:47.319Z,97632.25
2022-08-26T05:43:20.647Z,97633.44
2022-08-26T05:45:53.222Z,97632.69
2022-08-26T05:48:24.524Z,97622.94
2022-08-26T05:50:56.338Z,97631.63
2022-08-26T05:53:26.484Z,97634.84
2022-08-26T05:55:58.526Z,97632.06
2022-08-26T05:58:32.663Z,97631.09
2022-08-26T06:01:05.642Z,97625.25
2022-08-26T06:03:38.768Z,97626.03
2022-08-26T06:06:12.293Z,97624.16
2022-08-26T06:08:44.141Z,97624.53
2022-08-26T06:11:19.323Z,97627.31
2022-08-26T06:13:53.461Z,97623.53
2022-08-26T06:16:26.404Z,97622.16
2022-08-26T06:18:57.768Z,97624.78
2022-08-26T06:21:31.114Z,97629.22
2022-08-26T06:24:16.808Z,97626.84
2022-08-26T06:26:53.108Z,97623.41
2022-08-26T06:29:28.581Z,97623.31
2022-08-26T06:32:00.351Z,97625.63
2022-08-26T06:34:31.792Z,97631.72
2022-08-26T06:37:06.326Z,97627.41
2022-08-26T06:39:40.123Z,97629.66
2022-08-26T06:42:11.934Z,97621.63
2022-08-26T06:44:45.540Z,97625.97
2022-08-26T06:47:15.926Z,97623.94
2022-08-26T06:49:46.098Z,97620.91
2022-08-26T06:52:21.193Z,97626.16
2022-08-26T06:54:54.540Z,97619.28
2022-08-26T06:57:24.475Z,97619.25
2022-08-26T06:59:57.221Z,97626.75
2022-08-26T07:02:28.504Z,97628.34
2022-08-26T07:04:59.118Z,97616.97
2022-08-26T07:07:29.658Z,97625.28
2022-08-26T07:09:59.882Z,97624.06
2022-08-26T07:12:29.956Z,97630.72
2022-08-26T07:15:02.862Z,97628.03
2022-08-26T07:17:33.020Z,97625.88
2022-08-26T07:20:07.031Z,97626.03
2022-08-26T07:22:38.454Z,97621.91
2022-08-26T07:25:11.770Z,97622.25
2022-08-26T07:27:42.450Z,97622.84
2022-08-26T07:30:15.991Z,97619.97
2022-08-26T07:32:46.365Z,97614.44
2022-08-26T07:35:16.300Z,97618.03
2022-08-26T07:37:46.613Z,97613.78
2022-08-26T07:40:16.800Z,97608.94
2022-08-26T07:42:47.397Z,97617.75
2022-08-26T07:45:21.599Z,97612.63
2022-08-26T07:47:52.502Z,97610.91
2022-08-26T07:50:49.223Z,97610.38
2022-08-26T07:53:13.270Z,97605.16
2022-08-26T07:55:45.320Z,97609.00
2022-08-26T07:58:15.603Z,97612.59
2022-08-26T08:00:49.024Z,97613.78
2022-08-26T08:03:20.682Z,97602.44
2022-08-26T08:05:51.086Z,97602.31
2022-08-26T08:08:27.941Z,97610.16
2022-08-26T08:10:59.939Z,97600.63
2022-08-26T08:13:30.600Z,97604.06
2022-08-26T08:16:05.107Z,97609.75
2022-08-26T08:18:35.457Z,97602.91
2022-08-26T08:21:21.426Z,97600.16
2022-08-26T08:23:52.736Z,97597.34
2022-08-26T08:26:23.648Z,97591.91
2022-08-26T08:28:57.174Z,97587.88
2022-08-26T08:34:23.267Z,97575.22
2022-08-26T08:36:54.278Z,97573.09
2022-08-26T08:39:25.086Z,97570.19
2022-08-26T08:42:30.626Z,97569.97
2022-08-26T08:45:07.949Z,97573.66
2022-08-26T08:47:45.271Z,97566.00
2022-08-26T08:50:26.290Z,97560.75
2022-08-26T08:53:12.772Z,97571.34
2022-08-26T08:56:09.741Z,97558.47
2022-08-26T08:58:56.865Z,97563.13
2022-08-26T09:01:53.909Z,97552.63
2022-08-26T09:05:05.070Z,97551.66
2022-08-26T09:07:41.221Z,97534.78
2022-08-26T09:10:32.309Z,97540.00
2022-08-26T09:13:04.690Z,97530.66
2022-08-26T09:15:52.860Z,97540.03
2022-08-26T09:18:42.767Z,97531.97
2022-08-26T09:21:23.561Z,97533.81
2022-08-26T09:23:57.192Z,97531.41
2022-08-26T09:26:31.747Z,97521.84
2022-08-26T09:29:04.923Z,97534.84
2022-08-26T09:31:37.850Z,97522.47
2022-08-26T09:34:17.861Z,97517.91
2022-08-26T09:36:53.706Z,97513.28
2022-08-26T09:39:37.839Z,97523.81
2022-08-26T09:42:14.329Z,97527.56
2022-08-26T09:44:59.565Z,97520.56
2022-08-26T09:47:34.036Z,97531.41
2022-08-26T09:50:12.426Z,97531.31
2022-08-26T09:52:45.494Z,97530.31
2022-08-26T09:55:23.157Z,97526.38
2022-08-26T09:57:55.697Z,97516.28
2022-08-26T10:00:34.017Z,97510.91
2022-08-26T10:03:08.971Z,97514.56
2022-08-26T10:05:44.944Z,97508.91
2022-08-26T10:08:30.898Z,97502.06
2022-08-26T10:11:04.638Z,97502.66
2022-08-26T10:13:39.799Z,97496.09
2022-08-26T10:16:20.834Z,97502.22
2022-08-26T10:19:02.292Z,97509.94
2022-08-26T10:21:41.895Z,97497.34
2022-08-26T10:24:22.787Z,97490.75
2022-08-26T10:27:04.323Z,97499.69
2022-08-26T10:29:42.630Z,97504.25
2022-08-26T10:32:20.902Z,97506.41
2022-08-26T10:34:51.095Z,97504.94
2022-08-26T10:37:26.855Z,97518.59
2022-08-26T10:40:05.860Z,97517.34
2022-08-26T10:42:40.825Z,97508.75
2022-08-26T10:45:15.641Z,97503.50
2022-08-26T10:47:53.378Z,97506.31
2022-08-26T10:50:34.972Z,97519.13
2022-08-26T10:53:17.435Z,97525.47
2022-08-26T10:55:57.333Z,97542.66
2022-08-26T10:58:53.858Z,97540.97
2022-08-26T11:01:51.066Z,97535.16
2022-08-26T11:04:48.094Z,97528.97
2022-08-26T11:07:43.202Z,97514.22
2022-08-26T11:10:45.248Z,97507.69
2022-08-26T11:13:17.935Z,97497.63
2022-08-26T11:16:12.419Z,97485.97
2022-08-26T11:18:51.339Z,97475.09
2022-08-26T11:22:06.262Z,97473.06
2022-08-26T11:25:13.627Z,97474.78
2022-08-26T11:28:06.061Z,97469.69
2022-08-26T11:30:58.344Z,97477.84
2022-08-26T11:33:52.896Z,97459.69
2022-08-26T11:36:59.830Z,97468.16
2022-08-26T11:39:38.396Z,97471.75
2022-08-26T11:42:24.447Z,97474.78
2022-08-26T11:44:59.362Z,97477.00
2022-08-26T11:47:35.730Z,97481.00
2022-08-26T11:50:16.506Z,97480.44
2022-08-26T11:52:54.514Z,97493.84
2022-08-26T11:55:25.387Z,97489.63
2022-08-26T11:58:00.921Z,97499.38
2022-08-26T12:00:36.175Z,97497.47
2022-08-26T12:03:11.934Z,97494.56
2022-08-26T12:05:50.130Z,97492.75
2022-08-26T12:08:24.766Z,97486.44
2022-08-26T12:11:07.097Z,97502.75
2022-08-26T12:13:39.306Z,97504.41
2022-08-26T12:16:10.269Z,97511.44
2022-08-26T12:18:44.787Z,97508.44
2022-08-26T12:21:18.846Z,97503.22
2022-08-26T12:23:51.164Z,97507.88
2022-08-26T12:26:29.513Z,97504.19
2022-08-26T12:29:12.930Z,97496.00
2022-08-26T12:31:54.747Z,97487.53
2022-08-26T12:34:28.215Z,97482.69
2022-08-26T12:37:00.882Z,97472.47
2022-08-26T12:39:34.175Z,97468.44
2022-08-26T12:42:08.554Z,97461.53
2022-08-26T12:44:54.185Z,97454.06
2022-08-26T12:47:43.030Z,97455.69
2022-08-26T12:50:23.673Z,97461.44
2022-08-26T12:53:02.814Z,97460.66
2022-08-26T12:55:44.909Z,97463.50
2022-08-26T12:58:25.635Z,97457.03
2022-08-26T13:00:57.567Z,97457.03
2022-08-26T13:03:45.641Z,97458.69
2022-08-26T13:06:31.274Z,97454.13
2022-08-26T13:09:06.081Z,97447.22
2022-08-26T13:11:58.871Z,97444.19
2022-08-26T13:14:29.217Z,97436.34
2022-08-26T13:16:59.667Z,97436.38
2022-08-26T13:19:29.859Z,97423.34
2022-08-26T13:22:04.072Z,97415.69
2022-08-26T13:24:38.181Z,97410.69
2022-08-26T13:27:15.512Z,97400.16
2022-08-26T13:29:45.919Z,97403.19
2022-08-26T13:32:18.097Z,97392.00
2022-08-26T13:34:52.946Z,97394.41
2022-08-26T13:37:35.285Z,97398.91
2022-08-26T13:40:08.604Z,97409.22
2022-08-26T13:42:43.007Z,97413.13
2022-08-26T13:45:20.847Z,97410.13
2022-08-26T13:47:51.133Z,97416.88
2022-08-26T13:50:21.319Z,97424.38
2022-08-26T13:52:53.894Z,97426.94
2022-08-26T13:55:24.133Z,97426.72
2022-08-26T13:57:54.124Z,97434.78
2022-08-26T14:00:24.694Z,97429.09
2022-08-26T14:02:54.962Z,97429.88
2022-08-26T14:05:25.179Z,97432.09
2022-08-26T14:07:58.426Z,97447.44
2022-08-26T14:10:30.340Z,97434.88
2022-08-26T14:13:00.559Z,97440.50
2022-08-26T14:15:30.889Z,97428.97
2022-08-26T14:18:01.104Z,97419.56
2022-08-26T14:20:32.825Z,97424.13
2022-08-26T14:23:14.579Z,97426.13
2022-08-26T14:25:44.999Z,97422.31
2022-08-26T14:28:15.034Z,97419.31
2022-08-26T14:30:47.382Z,97416.81
2022-08-26T14:33:18.298Z,97415.38
2022-08-26T14:35:49.006Z,97414.47
2022-08-26T14:38:22.792Z,97410.22
2022-08-26T14:40:56.087Z,97403.97
2022-08-26T14:43:26.410Z,97401.53
2022-08-26T14:45:56.632Z,97395.69
2022-08-26T14:48:26.808Z,97392.38
2022-08-26T14:50:57.035Z,97392.13
2022-08-26T14:53:42.257Z,97391.28
2022-08-26T14:56:16.524Z,97396.69
2022-08-26T14:58:47.106Z,97393.44
2022-08-26T15:01:17.083Z,97390.34
2022-08-26T15:03:47.393Z,97381.94
2022-08-26T15:06:19.669Z,97379.28
2022-08-26T15:08:52.648Z,97378.25
2022-08-26T15:11:22.949Z,97377.09
2022-08-26T15:13:53.077Z,97375.16
2022-08-26T15:16:23.489Z,97366.50
2022-08-26T15:18:54.304Z,97365.50
2022-08-26T15:21:24.962Z,97370.25
2022-08-26T15:23:58.175Z,97356.31
2022-08-26T15:26:28.698Z,97351.91
2022-08-26T15:29:04.713Z,97351.56
2022-08-26T15:31:36.725Z,97351.34
2022-08-26T15:34:14.617Z,97359.84
2022-08-26T15:36:47.510Z,97365.41
2022-08-26T15:39:21.082Z,97369.09
2022-08-26T15:41:51.767Z,97367.84
2022-08-26T15:44:22.048Z,97384.34
2022-08-26T15:46:58.494Z,97387.09
2022-08-26T15:49:30.326Z,97383.16
2022-08-26T15:52:04.217Z,97398.41
2022-08-26T15:54:39.686Z,97390.72
2022-08-26T15:57:13.621Z,97395.97
2022-08-26T15:59:45.420Z,97381.50
2022-08-26T16:02:15.736Z,97390.19
2022-08-26T16:04:46.091Z,97398.66
2022-08-26T16:07:16.076Z,97403.28
2022-08-26T16:09:52.097Z,97406.53
2022-08-26T16:12:24.689Z,97406.78
2022-08-26T16:14:54.919Z,97392.78
2022-08-26T16:17:25.307Z,97385.16
2022-08-26T16:19:56.384Z,97390.81
2022-08-26T16:22:27.930Z,97389.81
2022-08-26T16:25:02.348Z,97376.38
2022-08-26T16:27:32.612Z,97375.78
2022-08-26T16:30:02.602Z,97361.03
2022-08-26T16:32:32.835Z,97355.97
2022-08-26T16:35:02.999Z,97352.50
2022-08-26T16:37:35.467Z,97364.88
2022-08-26T16:40:13.337Z,97371.88
2022-08-26T16:42:43.616Z,97383.81
2022-08-26T16:45:14.008Z,97380.50
2022-08-26T16:47:44.545Z,97382.00
2022-08-26T16:50:15.133Z,97380.81
2022-08-26T16:52:45.402Z,97379.06
2022-08-26T16:55:19.460Z,97382.16
2022-08-26T16:57:49.958Z,97378.50
2022-08-26T17:00:24.642Z,97378.50
2022-08-26T17:02:55.153Z,97374.91
2022-08-26T17:05:26.625Z,97364.47
2022-08-26T17:07:57.713Z,97364.31
2022-08-26T17:10:32.430Z,97359.59
2022-08-26T17:13:03.292Z,97369.84
2022-08-26T17:15:33.592Z,97363.25
2022-08-26T17:18:03.625Z,97358.41
2022-08-26T17:20:34.275Z,97360.44
2022-08-26T17:23:04.998Z,97357.09
2022-08-26T17:25:37.896Z,97354.84
2022-08-26T17:28:13.187Z,97348.41
2022-08-26T17:30:44.491Z,97342.41
2022-08-26T17:33:14.969Z,97336.06
2022-08-26T17:35:49.228Z,97332.75
2022-08-26T17:38:19.868Z,97332.41
2022-08-26T17:40:53.655Z,97331.72
2022-08-26T17:43:24.113Z,97325.75
2022-08-26T17:45:54.581Z,97317.63
2022-08-26T17:48:25.092Z,97324.31
2022-08-26T17:50:56.608Z,97311.84
2022-08-26T17:53:29.240Z,97311.78
2022-08-26T17:56:02.429Z,97318.78
2022-08-26T17:58:32.812Z,97323.34
2022-08-26T18:01:06.211Z,97334.91
2022-08-26T18:03:37.286Z,97339.50
2022-08-26T18:06:13.108Z,97336.91
2022-08-26T18:08:45.125Z,97339.38
2022-08-26T18:11:21.005Z,97344.38
2022-08-26T18:13:51.604Z,97346.66
2022-08-26T18:16:23.495Z,97358.22
2022-08-26T18:18:54.492Z,97355.97
2022-08-26T18:21:29.956Z,97357.81
2022-08-26T18:24:00.391Z,97362.38
2022-08-26T18:26:37.016Z,97369.03
2022-08-26T18:29:08.899Z,97376.94
2022-08-26T18:31:39.311Z,97385.25
2022-08-26T18:34:12.915Z,97384.91
2022-08-26T18:36:43.894Z,97385.28
2022-08-26T18:39:18.379Z,97394.19
2022-08-26T18:41:55.314Z,97396.25
2022-08-26T18:44:26.433Z,97398.00
2022-08-26T18:46:56.929Z,97407.81
2022-08-26T18:49:27.087Z,97398.00
2022-08-26T18:51:57.463Z,97417.44
2022-08-26T18:54:27.956Z,97420.09
2022-08-26T18:57:02.979Z,97428.56
2022-08-26T18:59:33.337Z,97428.94
2022-08-26T19:02:03.823Z,97423.13
2022-08-26T19:04:34.596Z,97421.81
2022-08-26T19:07:05.225Z,97424.66
2022-08-26T19:09:36.076Z,97419.38
2022-08-26T19:12:10.117Z,97421.81
2022-08-26T19:14:40.544Z,97429.91
2022-08-26T19:17:10.732Z,97428.78
2022-08-26T19:19:41.465Z,97434.81
2022-08-26T19:22:12.067Z,97431.06
2022-08-26T19:24:42.050Z,97439.16
2022-08-26T19:27:15.238Z,97431.44
2022-08-26T19:29:45.601Z,97429.22
2022-08-26T19:32:17.163Z,97424.47
2022-08-26T19:34:47.600Z,97425.78
2022-08-26T19:37:17.982Z,97425.78
2022-08-26T19:39:49.019Z,97423.56
2022-08-26T19:42:22.256Z,97427.91
2022-08-26T19:45:04.973Z,97407.91
2022-08-26T19:47:36.603Z,97423.94
2022-08-26T19:50:11.644Z,97415.09
2022-08-26T19:52:45.710Z,97416.06
2022-08-26T19:55:18.698Z,97414.00
2022-08-26T19:57:53.099Z,97415.31
2022-08-26T20:00:27.428Z,97411.53
2022-08-26T20:02:58.556Z,97407.97
2022-08-26T20:05:30.162Z,97397.06
2022-08-26T20:08:00.844Z,97400.13
2022-08-26T20:10:31.835Z,97403.72
2022-08-26T20:13:04.823Z,97395.78
2022-08-26T20:15:39.116Z,97402.03
2022-08-26T20:18:30.060Z,97400.94
2022-08-26T20:21:12.568Z,97395.09
2022-08-26T20:23:43.922Z,97397.34
2022-08-26T20:26:14.958Z,97406.41
2022-08-26T20:28:51.473Z,97409.78
2022-08-26T20:31:22.223Z,97399.97
2022-08-26T20:33:53.317Z,97410.72
2022-08-26T20:36:27.079Z,97413.16
2022-08-26T20:38:58.945Z,97412.63
2022-08-26T20:41:30.995Z,97407.13
2022-08-26T20:44:04.886Z,97413.72
2022-08-26T20:46:36.528Z,97413.16
2022-08-26T20:49:08.441Z,97414.66
2022-08-26T20:51:40.186Z,97419.94
2022-08-26T20:54:11.806Z,97421.44
2022-08-26T20:56:42.327Z,97413.91
2022-08-26T20:59:15.698Z,97412.78
2022-08-26T21:01:46.570Z,97412.63
2022-08-26T21:04:21.996Z,97422.97
2022-08-26T21:06:54.610Z,97427.47
2022-08-26T21:09:27.451Z,97417.88
2022-08-26T21:11:59.452Z,97420.13
2022-08-26T21:14:33.123Z,97421.06
2022-08-26T21:17:04.130Z,97411.88
2022-08-26T21:19:34.656Z,97409.59
2022-08-26T21:22:05.133Z,97412.97
2022-08-26T21:24:36.155Z,97418.63
2022-08-26T21:27:08.013Z,97412.59
2022-08-26T21:29:42.075Z,97419.00
2022-08-26T21:32:12.734Z,97418.03
2022-08-26T21:34:46.161Z,97419.19
2022-08-26T21:37:17.126Z,97417.13
2022-08-26T21:39:47.771Z,97419.56
2022-08-26T21:42:18.463Z,97419.00
2022-08-26T21:44:53.523Z,97416.53
2022-08-26T21:47:24.691Z,97419.91
2022-08-26T21:49:55.935Z,97428.59
2022-08-26T21:52:26.651Z,97431.22
2022-08-26T21:55:01.336Z,97429.31
2022-08-26T21:57:32.653Z,97424.59
2022-08-26T22:00:08.380Z,97414.81
2022-08-26T22:02:39.253Z,97419.50
2022-08-26T22:05:10.778Z,97415.56
2022-08-26T22:07:41.249Z,97431.22
2022-08-26T22:10:11.828Z,97418.03
2022-08-26T22:12:42.140Z,97427.84
2022-08-26T22:15:16.021Z,97423.16
2022-08-26T22:17:46.280Z,97417.66
2022-08-26T22:20:16.894Z,97418.03
2022-08-26T22:22:47.159Z,97425.97
2022-08-26T22:25:17.391Z,97426.34
2022-08-26T22:27:47.698Z,97450.59
2022-08-26T22:30:21.207Z,97464.72
2022-08-26T22:32:51.512Z,97469.59
2022-08-26T22:35:28.948Z,97461.91
2022-08-26T22:38:01.013Z,97447.41
2022-08-26T22:40:31.376Z,97429.69
2022-08-26T22:43:02.329Z,97437.91
2022-08-26T22:45:35.677Z,97422.41
2022-08-26T22:48:07.208Z,97412.25
2022-08-26T22:50:37.482Z,97412.72
2022-08-26T22:53:07.770Z,97410.09
2022-08-26T22:55:39.189Z,97407.59
2022-08-26T22:58:09.718Z,97414.47
2022-08-26T23:00:42.856Z,97423.72
2022-08-26T23:03:14.505Z,97434.34
2022-08-26T23:05:45.206Z,97437.69
2022-08-26T23:08:17.543Z,97445.25
2022-08-26T23:10:50.118Z,97446.19
2022-08-26T23:13:21.267Z,97436.97
2022-08-26T23:16:03.747Z,97429.56
2022-08-26T23:18:34.211Z,97418.38
2022-08-26T23:21:04.784Z,97422.34
2022-08-26T23:23:35.536Z,97417.63
2022-08-26T23:26:06.503Z,97417.81
2022-08-26T23:28:37.272Z,97413.41
2022-08-26T23:31:10.174Z,97412.03
2022-08-26T23:33:52.872Z,97406.34
2022-08-26T23:36:23.781Z,97403.19
2022-08-26T23:38:54.444Z,97398.88
2022-08-26T23:41:24.569Z,97404.88
2022-08-26T23:43:55.340Z,97399.66
2022-08-26T23:46:28.131Z,97404.19
2022-08-26T23:48:58.352Z,97402.91
2022-08-26T23:51:41.080Z,97402.91
2022-08-26T23:54:11.313Z,97402.47
2022-08-26T23:56:42.206Z,97408.53
2022-08-26T23:59:12.418Z,97399.13
